sensor_id;sensor_type;location;lat;lon;timestamp;pressure;altitude;pressure_sealevel;temperature;humidity
25722;BME280;13578;53.450;15.496;2023-06-19T00:01:59;99654.19;;;13.64;100.00
25722;BME280;13578;53.450;15.496;2023-06-19T00:05:00;99649.44;;;13.56;100.00
25722;BME280;13578;53.450;15.496;2023-06-19T00:08:01;99643.47;;;13.61;100.00
25722;BME280;13578;53.450;15.496;2023-06-19T00:11:03;99648.50;;;13.65;100.00
25722;BME280;13578;53.450;15.496;2023-06-19T00:14:04;99652.75;;;13.60;100.00
25722;BME280;13578;53.450;15.496;2023-06-19T00:17:05;99640.97;;;13.49;100.00
25722;BME280;13578;53.450;15.496;2023-06-19T00:20:07;99634.38;;;13.42;100.00
25722;BME280;13578;53.450;15.496;2023-06-19T00:23:08;99641.75;;;13.42;100.00
25722;BME280;13578;53.450;15.496;2023-06-19T00:26:11;99641.63;;;13.43;100.00
25722;BME280;13578;53.450;15.496;2023-06-19T00:29:14;99638.16;;;13.41;100.00
25722;BME280;13578;53.450;15.496;2023-06-19T00:32:15;99642.78;;;13.41;100.00
25722;BME280;13578;53.450;15.496;2023-06-19T00:35:16;99642.09;;;13.39;100.00
25722;BME280;13578;53.450;15.496;2023-06-19T00:38:18;99649.50;;;13.38;100.00
25722;BME280;13578;53.450;15.496;2023-06-19T00:41:21;99648.59;;;13.38;100.00
25722;BME280;13578;53.450;15.496;2023-06-19T00:44:22;99646.31;;;13.33;100.00
25722;BME280;13578;53.450;15.496;2023-06-19T00:47:23;99663.50;;;13.27;100.00
25722;BME280;13578;53.450;15.496;2023-06-19T00:50:28;99657.81;;;13.28;100.00
25722;BME280;13578;53.450;15.496;2023-06-19T00:53:30;99652.25;;;13.20;100.00
25722;BME280;13578;53.450;15.496;2023-06-19T00:56:33;99662.00;;;13.14;100.00
25722;BME280;13578;53.450;15.496;2023-06-19T00:59:35;99658.69;;;13.11;100.00
25722;BME280;13578;53.450;15.496;2023-06-19T01:02:36;99660.13;;;13.15;100.00
25722;BME280;13578;53.450;15.496;2023-06-19T01:05:37;99654.38;;;13.08;100.00
25722;BME280;13578;53.450;15.496;2023-06-19T01:09:02;99650.59;;;13.09;100.00
25722;BME280;13578;53.450;15.496;2023-06-19T01:12:09;99665.09;;;13.11;100.00
25722;BME280;13578;53.450;15.496;2023-06-19T01:15:11;99654.00;;;13.03;100.00
25722;BME280;13578;53.450;15.496;2023-06-19T01:18:12;99646.44;;;13.05;100.00
25722;BME280;13578;53.450;15.496;2023-06-19T01:21:17;99654.38;;;13.08;100.00
25722;BME280;13578;53.450;15.496;2023-06-19T01:24:18;99650.59;;;13.09;100.00
25722;BME280;13578;53.450;15.496;2023-06-19T01:27:19;99641.94;;;13.04;100.00
25722;BME280;13578;53.450;15.496;2023-06-19T01:30:20;99639.19;;;13.04;100.00
25722;BME280;13578;53.450;15.496;2023-06-19T01:33:25;99647.06;;;12.99;100.00
25722;BME280;13578;53.450;15.496;2023-06-19T01:36:28;99651.31;;;12.93;100.00
25722;BME280;13578;53.450;15.496;2023-06-19T01:39:29;99641.63;;;12.89;100.00
25722;BME280;13578;53.450;15.496;2023-06-19T01:42:31;99640.47;;;12.92;100.00
25722;BME280;13578;53.450;15.496;2023-06-19T01:45:33;99643.81;;;12.85;100.00
25722;BME280;13578;53.450;15.496;2023-06-19T01:48:38;99639.19;;;12.86;100.00
25722;BME280;13578;53.450;15.496;2023-06-19T01:51:39;99648.47;;;12.85;100.00
25722;BME280;13578;53.450;15.496;2023-06-19T01:54:40;99642.72;;;12.78;100.00
25722;BME280;13578;53.450;15.496;2023-06-19T01:57:41;99657.38;;;12.79;100.00
25722;BME280;13578;53.450;15.496;2023-06-19T02:00:42;99652.63;;;12.71;100.00
25722;BME280;13578;53.450;15.496;2023-06-19T02:03:42;99644.69;;;12.68;100.00
25722;BME280;13578;53.450;15.496;2023-06-19T02:06:43;99637.63;;;12.65;100.00
25722;BME280;13578;53.450;15.496;2023-06-19T02:09:43;99641.69;;;12.61;100.00
25722;BME280;13578;53.450;15.496;2023-06-19T02:12:44;99644.59;;;12.60;100.00
25722;BME280;13578;53.450;15.496;2023-06-19T02:15:45;99636.25;;;12.51;100.00
25722;BME280;13578;53.450;15.496;2023-06-19T02:18:45;99638.84;;;12.53;100.00
25722;BME280;13578;53.450;15.496;2023-06-19T02:21:46;99641.50;;;12.45;100.00
25722;BME280;13578;53.450;15.496;2023-06-19T02:24:47;99647.00;;;12.45;100.00
25722;BME280;13578;53.450;15.496;2023-06-19T02:27:47;99626.78;;;12.36;100.00
25722;BME280;13578;53.450;15.496;2023-06-19T02:30:48;99630.75;;;12.51;100.00
25722;BME280;13578;53.450;15.496;2023-06-19T02:33:49;99636.97;;;12.53;100.00
25722;BME280;13578;53.450;15.496;2023-06-19T02:36:50;99633.34;;;12.53;100.00
25722;BME280;13578;53.450;15.496;2023-06-19T02:39:51;99642.56;;;12.62;100.00
25722;BME280;13578;53.450;15.496;2023-06-19T02:42:51;99642.47;;;12.53;100.00
25722;BME280;13578;53.450;15.496;2023-06-19T02:45:52;99643.19;;;12.55;100.00
25722;BME280;13578;53.450;15.496;2023-06-19T02:48:53;99631.47;;;12.53;100.00
25722;BME280;13578;53.450;15.496;2023-06-19T02:51:53;99620.28;;;12.55;100.00
25722;BME280;13578;53.450;15.496;2023-06-19T02:54:54;99623.34;;;12.52;100.00
25722;BME280;13578;53.450;15.496;2023-06-19T02:57:55;99629.47;;;12.46;100.00
25722;BME280;13578;53.450;15.496;2023-06-19T03:00:55;99623.50;;;12.50;100.00
25722;BME280;13578;53.450;15.496;2023-06-19T03:03:57;99611.09;;;12.46;100.00
25722;BME280;13578;53.450;15.496;2023-06-19T03:06:58;99604.16;;;12.42;100.00
25722;BME280;13578;53.450;15.496;2023-06-19T03:09:59;99601.81;;;12.47;100.00
25722;BME280;13578;53.450;15.496;2023-06-19T03:12:59;99598.53;;;12.62;100.00
25722;BME280;13578;53.450;15.496;2023-06-19T03:16:00;99604.59;;;12.83;100.00
25722;BME280;13578;53.450;15.496;2023-06-19T03:19:01;99593.06;;;13.24;100.00
25722;BME280;13578;53.450;15.496;2023-06-19T03:22:02;99605.63;;;13.71;100.00
25722;BME280;13578;53.450;15.496;2023-06-19T03:25:03;99609.25;;;14.06;100.00
25722;BME280;13578;53.450;15.496;2023-06-19T03:28:04;99623.19;;;14.56;100.00
25722;BME280;13578;53.450;15.496;2023-06-19T03:31:05;99641.97;;;15.03;100.00
25722;BME280;13578;53.450;15.496;2023-06-19T03:34:06;99655.78;;;15.45;100.00
25722;BME280;13578;53.450;15.496;2023-06-19T03:37:06;99656.81;;;15.77;100.00
25722;BME280;13578;53.450;15.496;2023-06-19T03:40:07;99660.03;;;16.05;100.00
25722;BME280;13578;53.450;15.496;2023-06-19T03:43:13;99666.47;;;16.45;100.00
25722;BME280;13578;53.450;15.496;2023-06-19T03:46:14;99678.25;;;16.79;100.00
25722;BME280;13578;53.450;15.496;2023-06-19T03:49:14;99685.78;;;17.02;100.00
25722;BME280;13578;53.450;15.496;2023-06-19T03:52:15;99688.06;;;17.21;100.00
25722;BME280;13578;53.450;15.496;2023-06-19T03:55:17;99679.97;;;17.35;100.00
25722;BME280;13578;53.450;15.496;2023-06-19T03:58:18;99683.66;;;17.50;100.00
25722;BME280;13578;53.450;15.496;2023-06-19T04:01:19;99678.81;;;17.52;100.00
25722;BME280;13578;53.450;15.496;2023-06-19T04:04:19;99688.88;;;17.68;100.00
25722;BME280;13578;53.450;15.496;2023-06-19T04:07:20;99686.66;;;17.87;100.00
25722;BME280;13578;53.450;15.496;2023-06-19T04:10:20;99696.47;;;18.13;100.00
25722;BME280;13578;53.450;15.496;2023-06-19T04:13:21;99694.00;;;18.33;100.00
25722;BME280;13578;53.450;15.496;2023-06-19T04:16:22;99693.97;;;18.48;100.00
25722;BME280;13578;53.450;15.496;2023-06-19T04:19:22;99693.91;;;18.41;100.00
25722;BME280;13578;53.450;15.496;2023-06-19T04:22:23;99701.91;;;18.36;100.00
25722;BME280;13578;53.450;15.496;2023-06-19T04:25:24;99698.09;;;18.37;100.00
25722;BME280;13578;53.450;15.496;2023-06-19T04:28:24;99695.53;;;18.50;100.00
25722;BME280;13578;53.450;15.496;2023-06-19T04:31:26;99698.56;;;18.55;100.00
25722;BME280;13578;53.450;15.496;2023-06-19T04:34:29;99705.53;;;18.81;100.00
25722;BME280;13578;53.450;15.496;2023-06-19T04:37:30;99695.84;;;18.92;100.00
25722;BME280;13578;53.450;15.496;2023-06-19T04:40:30;99704.81;;;19.09;100.00
25722;BME280;13578;53.450;15.496;2023-06-19T04:43:31;99699.13;;;19.17;100.00
25722;BME280;13578;53.450;15.496;2023-06-19T04:46:32;99706.97;;;19.29;100.00
25722;BME280;13578;53.450;15.496;2023-06-19T04:49:33;99717.09;;;19.58;100.00
25722;BME280;13578;53.450;15.496;2023-06-19T04:52:34;99723.25;;;19.75;100.00
25722;BME280;13578;53.450;15.496;2023-06-19T04:55:35;99710.94;;;19.84;100.00
25722;BME280;13578;53.450;15.496;2023-06-19T04:58:36;99728.38;;;19.93;100.00
25722;BME280;13578;53.450;15.496;2023-06-19T05:01:36;99713.19;;;19.96;100.00
25722;BME280;13578;53.450;15.496;2023-06-19T05:04:40;99717.72;;;20.04;100.00
25722;BME280;13578;53.450;15.496;2023-06-19T05:07:44;99720.16;;;20.13;100.00
25722;BME280;13578;53.450;15.496;2023-06-19T05:10:45;99721.13;;;20.27;100.00
25722;BME280;13578;53.450;15.496;2023-06-19T05:13:46;99727.81;;;20.33;100.00
25722;BME280;13578;53.450;15.496;2023-06-19T05:16:46;99727.22;;;20.44;100.00
25722;BME280;13578;53.450;15.496;2023-06-19T05:19:47;99732.59;;;20.46;100.00
25722;BME280;13578;53.450;15.496;2023-06-19T05:22:48;99731.09;;;20.43;100.00
25722;BME280;13578;53.450;15.496;2023-06-19T05:25:49;99734.13;;;20.49;100.00
25722;BME280;13578;53.450;15.496;2023-06-19T05:28:49;99736.25;;;20.46;100.00
25722;BME280;13578;53.450;15.496;2023-06-19T05:31:50;99724.91;;;20.48;100.00
25722;BME280;13578;53.450;15.496;2023-06-19T05:34:51;99722.09;;;20.48;100.00
25722;BME280;13578;53.450;15.496;2023-06-19T05:37:51;99729.69;;;20.61;100.00
25722;BME280;13578;53.450;15.496;2023-06-19T05:40:52;99732.94;;;20.65;100.00
25722;BME280;13578;53.450;15.496;2023-06-19T05:43:52;99736.03;;;20.83;100.00
25722;BME280;13578;53.450;15.496;2023-06-19T05:46:53;99738.44;;;20.93;100.00
25722;BME280;13578;53.450;15.496;2023-06-19T05:49:54;99747.69;;;20.93;100.00
25722;BME280;13578;53.450;15.496;2023-06-19T05:52:55;99746.84;;;21.00;100.00
25722;BME280;13578;53.450;15.496;2023-06-19T05:55:55;99755.97;;;21.22;100.00
25722;BME280;13578;53.450;15.496;2023-06-19T05:58:56;99743.94;;;21.21;100.00
25722;BME280;13578;53.450;15.496;2023-06-19T06:01:56;99748.88;;;21.26;100.00
25722;BME280;13578;53.450;15.496;2023-06-19T06:04:57;99753.03;;;21.50;100.00
25722;BME280;13578;53.450;15.496;2023-06-19T06:07:58;99748.16;;;21.72;100.00
25722;BME280;13578;53.450;15.496;2023-06-19T06:10:58;99757.63;;;21.98;100.00
25722;BME280;13578;53.450;15.496;2023-06-19T06:13:59;99761.50;;;22.04;100.00
25722;BME280;13578;53.450;15.496;2023-06-19T06:16:59;99743.88;;;21.97;100.00
25722;BME280;13578;53.450;15.496;2023-06-19T06:20:00;99752.91;;;22.05;100.00
25722;BME280;13578;53.450;15.496;2023-06-19T06:23:01;99741.94;;;22.11;100.00
25722;BME280;13578;53.450;15.496;2023-06-19T06:26:01;99755.03;;;22.24;100.00
25722;BME280;13578;53.450;15.496;2023-06-19T06:29:02;99753.75;;;22.40;100.00
25722;BME280;13578;53.450;15.496;2023-06-19T06:32:04;99750.97;;;22.40;100.00
25722;BME280;13578;53.450;15.496;2023-06-19T06:35:06;99759.13;;;22.55;100.00
25722;BME280;13578;53.450;15.496;2023-06-19T06:38:07;99749.25;;;22.52;100.00
25722;BME280;13578;53.450;15.496;2023-06-19T06:41:08;99752.03;;;22.52;100.00
25722;BME280;13578;53.450;15.496;2023-06-19T06:44:08;99743.66;;;22.52;100.00
25722;BME280;13578;53.450;15.496;2023-06-19T06:47:09;99746.22;;;22.33;100.00
25722;BME280;13578;53.450;15.496;2023-06-19T06:50:10;99752.25;;;22.44;100.00
25722;BME280;13578;53.450;15.496;2023-06-19T06:53:10;99743.19;;;22.55;100.00
25722;BME280;13578;53.450;15.496;2023-06-19T06:56:11;99742.75;;;22.58;100.00
25722;BME280;13578;53.450;15.496;2023-06-19T06:59:11;99757.41;;;22.60;100.00
25722;BME280;13578;53.450;15.496;2023-06-19T07:02:12;99747.25;;;22.73;100.00
25722;BME280;13578;53.450;15.496;2023-06-19T07:05:13;99753.03;;;22.78;100.00
25722;BME280;13578;53.450;15.496;2023-06-19T07:08:14;99751.25;;;22.97;100.00
25722;BME280;13578;53.450;15.496;2023-06-19T07:11:14;99766.69;;;23.13;100.00
25722;BME280;13578;53.450;15.496;2023-06-19T07:14:15;99746.44;;;23.24;100.00
25722;BME280;13578;53.450;15.496;2023-06-19T07:17:18;99750.13;;;23.18;100.00
25722;BME280;13578;53.450;15.496;2023-06-19T07:20:18;99764.44;;;23.42;100.00
25722;BME280;13578;53.450;15.496;2023-06-19T07:23:19;99758.19;;;23.72;100.00
25722;BME280;13578;53.450;15.496;2023-06-19T07:26:20;99750.53;;;23.92;100.00
25722;BME280;13578;53.450;15.496;2023-06-19T07:29:20;99739.91;;;23.69;100.00
25722;BME280;13578;53.450;15.496;2023-06-19T07:32:21;99762.66;;;23.47;100.00
25722;BME280;13578;53.450;15.496;2023-06-19T07:35:22;99758.94;;;23.60;100.00
25722;BME280;13578;53.450;15.496;2023-06-19T07:38:23;99757.09;;;23.73;100.00
25722;BME280;13578;53.450;15.496;2023-06-19T07:41:24;99753.13;;;23.87;100.00
25722;BME280;13578;53.450;15.496;2023-06-19T07:44:24;99766.63;;;24.04;100.00
25722;BME280;13578;53.450;15.496;2023-06-19T07:47:26;99759.19;;;24.16;100.00
25722;BME280;13578;53.450;15.496;2023-06-19T07:50:26;99747.00;;;24.29;100.00
25722;BME280;13578;53.450;15.496;2023-06-19T07:53:27;99745.13;;;24.41;97.82
25722;BME280;13578;53.450;15.496;2023-06-19T07:56:28;99755.47;;;24.22;99.95
25722;BME280;13578;53.450;15.496;2023-06-19T07:59:28;99767.78;;;24.21;100.00
25722;BME280;13578;53.450;15.496;2023-06-19T08:02:29;99748.81;;;24.42;99.88
25722;BME280;13578;53.450;15.496;2023-06-19T08:05:30;99748.53;;;24.50;97.96
25722;BME280;13578;53.450;15.496;2023-06-19T08:08:30;99745.75;;;24.69;96.03
25722;BME280;13578;53.450;15.496;2023-06-19T08:11:31;99743.41;;;24.66;95.34
25722;BME280;13578;53.450;15.496;2023-06-19T08:14:31;99753.66;;;24.53;96.81
25722;BME280;13578;53.450;15.496;2023-06-19T08:17:32;99748.09;;;24.72;96.12
25722;BME280;13578;53.450;15.496;2023-06-19T08:20:33;99741.00;;;24.69;94.14
25722;BME280;13578;53.450;15.496;2023-06-19T08:23:33;99732.50;;;24.76;92.15
25722;BME280;13578;53.450;15.496;2023-06-19T08:26:34;99725.44;;;24.92;91.48
25722;BME280;13578;53.450;15.496;2023-06-19T08:29:34;99744.81;;;24.75;93.75
25722;BME280;13578;53.450;15.496;2023-06-19T08:32:35;99745.44;;;24.77;95.32
25722;BME280;13578;53.450;15.496;2023-06-19T08:35:36;99739.13;;;25.19;93.75
25722;BME280;13578;53.450;15.496;2023-06-19T08:38:36;99734.34;;;25.19;92.20
25722;BME280;13578;53.450;15.496;2023-06-19T08:41:37;99732.78;;;25.42;88.77
25722;BME280;13578;53.450;15.496;2023-06-19T08:44:38;99712.31;;;25.53;84.75
25722;BME280;13578;53.450;15.496;2023-06-19T08:47:39;99722.38;;;25.73;84.15
25722;BME280;13578;53.450;15.496;2023-06-19T08:50:40;99718.44;;;25.62;83.01
25722;BME280;13578;53.450;15.496;2023-06-19T08:53:49;99704.81;;;25.90;78.86
25722;BME280;13578;53.450;15.496;2023-06-19T08:56:53;99698.75;;;26.16;75.37
25722;BME280;13578;53.450;15.496;2023-06-19T08:59:56;99700.94;;;26.14;75.37
25722;BME280;13578;53.450;15.496;2023-06-19T09:03:01;99722.22;;;26.10;78.57
25722;BME280;13578;53.450;15.496;2023-06-19T09:06:03;99710.09;;;25.98;78.38
25722;BME280;13578;53.450;15.496;2023-06-19T09:09:04;99713.50;;;26.00;80.87
25722;BME280;13578;53.450;15.496;2023-06-19T09:12:12;99721.25;;;26.16;79.96
25722;BME280;13578;53.450;15.496;2023-06-19T09:15:14;99704.00;;;26.13;74.97
25722;BME280;13578;53.450;15.496;2023-06-19T09:18:15;99697.16;;;26.32;73.31
25722;BME280;13578;53.450;15.496;2023-06-19T09:21:20;99676.88;;;26.42;67.00
25722;BME280;13578;53.450;15.496;2023-06-19T09:24:23;99711.56;;;26.36;69.35
25722;BME280;13578;53.450;15.496;2023-06-19T09:27:24;99713.81;;;26.34;68.50
25722;BME280;13578;53.450;15.496;2023-06-19T09:30:25;99697.28;;;26.50;68.84
25722;BME280;13578;53.450;15.496;2023-06-19T09:33:30;99690.78;;;26.49;67.84
25722;BME280;13578;53.450;15.496;2023-06-19T09:36:32;99713.44;;;26.54;68.39
25722;BME280;13578;53.450;15.496;2023-06-19T09:39:34;99688.84;;;26.50;65.20
25722;BME280;13578;53.450;15.496;2023-06-19T09:42:34;99693.59;;;26.49;66.18
25722;BME280;13578;53.450;15.496;2023-06-19T09:45:35;99711.19;;;26.68;69.69
25722;BME280;13578;53.450;15.496;2023-06-19T09:48:42;99700.56;;;26.82;64.82
25722;BME280;13578;53.450;15.496;2023-06-19T09:51:43;99704.47;;;26.93;65.52
25722;BME280;13578;53.450;15.496;2023-06-19T09:54:44;99689.88;;;26.96;63.50
25722;BME280;13578;53.450;15.496;2023-06-19T09:57:46;99698.59;;;26.59;62.70
25722;BME280;13578;53.450;15.496;2023-06-19T10:00:49;99701.09;;;26.43;61.78
25722;BME280;13578;53.450;15.496;2023-06-19T10:04:02;99710.84;;;26.41;62.79
25722;BME280;13578;53.450;15.496;2023-06-19T10:07:03;99709.94;;;26.88;61.75
25722;BME280;13578;53.450;15.496;2023-06-19T10:10:27;99708.81;;;27.01;61.04
25722;BME280;13578;53.450;15.496;2023-06-19T10:13:35;99710.03;;;27.17;60.53
25722;BME280;13578;53.450;15.496;2023-06-19T10:16:40;99708.72;;;26.95;59.37
25722;BME280;13578;53.450;15.496;2023-06-19T10:19:49;99714.03;;;26.80;60.63
25722;BME280;13578;53.450;15.496;2023-06-19T10:23:11;99723.69;;;26.72;62.40
25722;BME280;13578;53.450;15.496;2023-06-19T10:26:15;99719.63;;;26.68;63.36
25722;BME280;13578;53.450;15.496;2023-06-19T10:29:17;99719.41;;;26.82;61.91
25722;BME280;13578;53.450;15.496;2023-06-19T10:32:17;99706.94;;;26.54;61.00
25722;BME280;13578;53.450;15.496;2023-06-19T10:35:18;99709.63;;;26.60;62.12
25722;BME280;13578;53.450;15.496;2023-06-19T10:38:21;99707.28;;;26.69;59.72
25722;BME280;13578;53.450;15.496;2023-06-19T10:41:23;99704.84;;;26.61;59.33
25722;BME280;13578;53.450;15.496;2023-06-19T10:44:25;99699.47;;;26.71;60.38
25722;BME280;13578;53.450;15.496;2023-06-19T10:47:26;99700.22;;;26.78;59.45
25722;BME280;13578;53.450;15.496;2023-06-19T10:50:28;99698.09;;;26.74;59.04
25722;BME280;13578;53.450;15.496;2023-06-19T10:53:32;99694.41;;;26.85;56.46
25722;BME280;13578;53.450;15.496;2023-06-19T10:56:34;99704.19;;;26.94;57.58
25722;BME280;13578;53.450;15.496;2023-06-19T10:59:34;99694.47;;;26.61;57.24
25722;BME280;13578;53.450;15.496;2023-06-19T11:02:35;99709.75;;;26.77;58.56
25722;BME280;13578;53.450;15.496;2023-06-19T11:05:43;99705.38;;;27.10;58.00
25722;BME280;13578;53.450;15.496;2023-06-19T11:08:50;99693.88;;;27.12;56.31
25722;BME280;13578;53.450;15.496;2023-06-19T11:11:52;99693.53;;;27.37;55.39
25722;BME280;13578;53.450;15.496;2023-06-19T11:14:53;99681.88;;;27.46;55.46
25722;BME280;13578;53.450;15.496;2023-06-19T11:17:53;99683.84;;;27.62;54.75
25722;BME280;13578;53.450;15.496;2023-06-19T11:20:54;99681.81;;;27.74;55.15
25722;BME280;13578;53.450;15.496;2023-06-19T11:23:57;99689.34;;;27.86;54.27
25722;BME280;13578;53.450;15.496;2023-06-19T11:26:58;99683.78;;;27.91;53.82
25722;BME280;13578;53.450;15.496;2023-06-19T11:29:59;99688.59;;;28.08;54.74
25722;BME280;13578;53.450;15.496;2023-06-19T11:33:01;99670.81;;;27.90;52.10
25722;BME280;13578;53.450;15.496;2023-06-19T11:36:03;99685.63;;;27.51;54.98
25722;BME280;13578;53.450;15.496;2023-06-19T11:39:04;99674.63;;;27.38;55.64
25722;BME280;13578;53.450;15.496;2023-06-19T11:42:08;99681.63;;;27.47;55.00
25722;BME280;13578;53.450;15.496;2023-06-19T11:45:09;99675.09;;;27.47;55.32
25722;BME280;13578;53.450;15.496;2023-06-19T11:48:09;99681.34;;;27.49;55.66
25722;BME280;13578;53.450;15.496;2023-06-19T11:51:12;99667.25;;;27.49;52.83
25722;BME280;13578;53.450;15.496;2023-06-19T11:54:13;99672.41;;;27.52;53.60
25722;BME280;13578;53.450;15.496;2023-06-19T11:57:18;99666.78;;;27.52;54.17
25722;BME280;13578;53.450;15.496;2023-06-19T12:00:18;99676.50;;;27.61;54.05
25722;BME280;13578;53.450;15.496;2023-06-19T12:03:19;99670.22;;;27.71;54.27
25722;BME280;13578;53.450;15.496;2023-06-19T12:06:20;99663.94;;;27.52;50.91
25722;BME280;13578;53.450;15.496;2023-06-19T12:09:21;99663.63;;;27.36;52.87
25722;BME280;13578;53.450;15.496;2023-06-19T12:12:21;99656.94;;;27.54;52.13
25722;BME280;13578;53.450;15.496;2023-06-19T12:15:22;99654.03;;;28.00;51.95
25722;BME280;13578;53.450;15.496;2023-06-19T12:18:23;99650.13;;;28.18;51.68
25722;BME280;13578;53.450;15.496;2023-06-19T12:21:24;99661.56;;;27.95;51.49
25722;BME280;13578;53.450;15.496;2023-06-19T12:24:24;99664.31;;;27.89;52.52
25722;BME280;13578;53.450;15.496;2023-06-19T12:27:25;99654.22;;;27.60;51.14
25722;BME280;13578;53.450;15.496;2023-06-19T12:30:26;99658.81;;;27.49;54.53
25722;BME280;13578;53.450;15.496;2023-06-19T12:33:26;99667.03;;;27.67;54.41
25722;BME280;13578;53.450;15.496;2023-06-19T12:36:31;99642.50;;;27.85;51.92
25722;BME280;13578;53.450;15.496;2023-06-19T12:39:32;99656.97;;;28.05;53.58
25722;BME280;13578;53.450;15.496;2023-06-19T12:42:32;99650.13;;;28.01;51.99
25722;BME280;13578;53.450;15.496;2023-06-19T12:45:33;99642.59;;;27.56;51.63
25722;BME280;13578;53.450;15.496;2023-06-19T12:48:34;99642.19;;;27.35;51.71
25722;BME280;13578;53.450;15.496;2023-06-19T12:51:35;99640.22;;;27.36;52.32
25722;BME280;13578;53.450;15.496;2023-06-19T12:54:35;99636.47;;;27.30;52.22
25722;BME280;13578;53.450;15.496;2023-06-19T12:57:36;99640.66;;;27.27;51.04
25722;BME280;13578;53.450;15.496;2023-06-19T13:00:37;99630.91;;;27.18;51.42
25722;BME280;13578;53.450;15.496;2023-06-19T13:03:38;99638.34;;;27.24;51.33
25722;BME280;13578;53.450;15.496;2023-06-19T13:06:39;99623.56;;;27.17;49.94
25722;BME280;13578;53.450;15.496;2023-06-19T13:09:40;99637.03;;;27.15;51.10
25722;BME280;13578;53.450;15.496;2023-06-19T13:12:41;99643.31;;;27.05;51.78
25722;BME280;13578;53.450;15.496;2023-06-19T13:15:41;99635.53;;;26.95;50.21
25722;BME280;13578;53.450;15.496;2023-06-19T13:18:42;99628.50;;;26.81;50.72
25722;BME280;13578;53.450;15.496;2023-06-19T13:21:43;99638.47;;;26.89;51.60
25722;BME280;13578;53.450;15.496;2023-06-19T13:24:44;99628.31;;;26.88;51.74
25722;BME280;13578;53.450;15.496;2023-06-19T13:27:45;99639.72;;;26.93;53.05
25722;BME280;13578;53.450;15.496;2023-06-19T13:30:46;99637.19;;;27.08;53.97
25722;BME280;13578;53.450;15.496;2023-06-19T13:33:46;99635.63;;;27.01;53.81
25722;BME280;13578;53.450;15.496;2023-06-19T13:36:47;99628.44;;;26.93;52.58
25722;BME280;13578;53.450;15.496;2023-06-19T13:39:48;99636.06;;;26.81;54.27
25722;BME280;13578;53.450;15.496;2023-06-19T13:42:48;99620.53;;;26.78;53.72
25722;BME280;13578;53.450;15.496;2023-06-19T13:45:49;99630.94;;;26.77;53.48
25722;BME280;13578;53.450;15.496;2023-06-19T13:48:50;99638.28;;;26.78;53.66
25722;BME280;13578;53.450;15.496;2023-06-19T13:51:51;99630.03;;;26.89;55.55
25722;BME280;13578;53.450;15.496;2023-06-19T13:54:52;99632.56;;;27.02;54.48
25722;BME280;13578;53.450;15.496;2023-06-19T13:57:52;99622.16;;;27.03;54.39
25722;BME280;13578;53.450;15.496;2023-06-19T14:00:53;99634.66;;;26.95;55.36
25722;BME280;13578;53.450;15.496;2023-06-19T14:03:53;99628.75;;;26.79;54.08
25722;BME280;13578;53.450;15.496;2023-06-19T14:06:54;99637.91;;;26.75;55.29
25722;BME280;13578;53.450;15.496;2023-06-19T14:09:55;99631.44;;;26.62;55.18
25722;BME280;13578;53.450;15.496;2023-06-19T14:12:55;99633.31;;;26.57;54.88
25722;BME280;13578;53.450;15.496;2023-06-19T14:15:56;99629.63;;;26.44;54.20
25722;BME280;13578;53.450;15.496;2023-06-19T14:18:57;99624.66;;;26.23;55.20
25722;BME280;13578;53.450;15.496;2023-06-19T14:21:58;99640.22;;;26.13;57.56
25722;BME280;13578;53.450;15.496;2023-06-19T14:24:58;99645.69;;;26.08;58.21
25722;BME280;13578;53.450;15.496;2023-06-19T14:28:03;99639.31;;;26.01;58.99
25722;BME280;13578;53.450;15.496;2023-06-19T14:31:05;99648.00;;;25.99;58.85
25722;BME280;13578;53.450;15.496;2023-06-19T14:34:05;99645.44;;;25.98;58.70
25722;BME280;13578;53.450;15.496;2023-06-19T14:37:06;99655.69;;;25.92;59.39
25722;BME280;13578;53.450;15.496;2023-06-19T14:40:07;99645.28;;;25.69;59.11
25722;BME280;13578;53.450;15.496;2023-06-19T14:43:08;99651.84;;;25.63;59.33
25722;BME280;13578;53.450;15.496;2023-06-19T14:46:11;99659.44;;;25.62;59.80
25722;BME280;13578;53.450;15.496;2023-06-19T14:49:12;99666.66;;;25.58;62.03
25722;BME280;13578;53.450;15.496;2023-06-19T14:52:13;99659.28;;;25.45;60.62
25722;BME280;13578;53.450;15.496;2023-06-19T14:55:16;99670.81;;;25.37;62.63
25722;BME280;13578;53.450;15.496;2023-06-19T14:58:17;99676.31;;;25.32;65.74
25722;BME280;13578;53.450;15.496;2023-06-19T15:01:17;99676.88;;;25.22;65.86
25722;BME280;13578;53.450;15.496;2023-06-19T15:04:18;99684.94;;;25.18;66.32
25722;BME280;13578;53.450;15.496;2023-06-19T15:07:18;99695.22;;;25.06;68.19
25722;BME280;13578;53.450;15.496;2023-06-19T15:10:19;99703.97;;;24.98;73.96
25722;BME280;13578;53.450;15.496;2023-06-19T15:13:20;99719.75;;;24.80;82.82
25722;BME280;13578;53.450;15.496;2023-06-19T15:16:20;99725.22;;;24.50;88.62
25722;BME280;13578;53.450;15.496;2023-06-19T15:19:22;99738.16;;;24.07;100.00
25722;BME280;13578;53.450;15.496;2023-06-19T15:22:24;99744.47;;;23.63;100.00
25722;BME280;13578;53.450;15.496;2023-06-19T15:25:24;99742.91;;;23.36;100.00
25722;BME280;13578;53.450;15.496;2023-06-19T15:28:25;99741.47;;;23.26;100.00
25722;BME280;13578;53.450;15.496;2023-06-19T15:31:25;99735.69;;;23.08;100.00
25722;BME280;13578;53.450;15.496;2023-06-19T15:34:26;99738.78;;;22.93;100.00
25722;BME280;13578;53.450;15.496;2023-06-19T15:37:27;99737.09;;;22.85;100.00
25722;BME280;13578;53.450;15.496;2023-06-19T15:40:28;99733.25;;;22.73;100.00
25722;BME280;13578;53.450;15.496;2023-06-19T15:43:29;99730.09;;;22.56;100.00